sensor_id;sensor_type;location;lat;lon;timestamp;temperature;humidity
22838;DHT22;11585;51.450;-0.240;2023-09-30T08:02:58;15.90;99.90
22838;DHT22;11585;51.450;-0.240;2023-09-30T08:05:26;15.90;99.90
22838;DHT22;11585;51.450;-0.240;2023-09-30T08:07:52;15.90;99.90
22838;DHT22;11585;51.450;-0.240;2023-09-30T08:10:17;15.90;99.90
22838;DHT22;11585;51.450;-0.240;2023-09-30T08:12:43;16.00;99.90
22838;DHT22;11585;51.450;-0.240;2023-09-30T08:15:13;16.00;99.90
22838;DHT22;11585;51.450;-0.240;2023-09-30T08:17:40;16.00;99.90
22838;DHT22;11585;51.450;-0.240;2023-09-30T08:20:06;16.00;99.90
22838;DHT22;11585;51.450;-0.240;2023-09-30T08:22:32;16.00;99.90
22838;DHT22;11585;51.450;-0.240;2023-09-30T08:24:58;16.00;99.90
22838;DHT22;11585;51.450;-0.240;2023-09-30T08:27:24;16.00;99.90
22838;DHT22;11585;51.450;-0.240;2023-09-30T08:29:52;16.10;99.90
22838;DHT22;11585;51.450;-0.240;2023-09-30T08:32:17;16.10;99.90
22838;DHT22;11585;51.450;-0.240;2023-09-30T08:34:43;16.10;99.90
22838;DHT22;11585;51.450;-0.240;2023-09-30T08:37:09;16.10;99.90
22838;DHT22;11585;51.450;-0.240;2023-09-30T08:39:39;16.10;99.90
22838;DHT22;11585;51.450;-0.240;2023-09-30T08:42:09;16.10;99.90
22838;DHT22;11585;51.450;-0.240;2023-09-30T08:44:39;16.10;99.90
22838;DHT22;11585;51.450;-0.240;2023-09-30T08:47:08;16.10;99.90
22838;DHT22;11585;51.450;-0.240;2023-09-30T08:49:38;16.20;99.90
22838;DHT22;11585;51.450;-0.240;2023-09-30T08:52:09;16.20;99.90
22838;DHT22;11585;51.450;-0.240;2023-09-30T08:54:35;16.20;99.90
22838;DHT22;11585;51.450;-0.240;2023-09-30T08:57:02;16.20;99.90
22838;DHT22;11585;51.450;-0.240;2023-09-30T08:59:30;16.20;99.90
22838;DHT22;11585;51.450;-0.240;2023-09-30T09:01:57;16.20;99.90
22838;DHT22;11585;51.450;-0.240;2023-09-30T09:04:24;16.30;99.90
22838;DHT22;11585;51.450;-0.240;2023-09-30T09:06:49;16.30;99.90
22838;DHT22;11585;51.450;-0.240;2023-09-30T09:09:34;16.30;99.90
22838;DHT22;11585;51.450;-0.240;2023-09-30T09:11:59;16.40;99.90
22838;DHT22;11585;51.450;-0.240;2023-09-30T09:14:41;16.40;99.90
22838;DHT22;11585;51.450;-0.240;2023-09-30T09:17:10;16.40;99.90
22838;DHT22;11585;51.450;-0.240;2023-09-30T09:20:00;16.40;99.90
22838;DHT22;11585;51.450;-0.240;2023-09-30T09:22:41;16.50;99.90
22838;DHT22;11585;51.450;-0.240;2023-09-30T09:25:07;16.50;99.90
22838;DHT22;11585;51.450;-0.240;2023-09-30T09:27:36;16.50;99.90
22838;DHT22;11585;51.450;-0.240;2023-09-30T09:30:34;16.50;99.90
22838;DHT22;11585;51.450;-0.240;2023-09-30T09:33:06;16.60;99.90
22838;DHT22;11585;51.450;-0.240;2023-09-30T09:35:33;16.60;99.90
22838;DHT22;11585;51.450;-0.240;2023-09-30T09:38:01;16.50;99.90
22838;DHT22;11585;51.450;-0.240;2023-09-30T09:40:32;16.60;99.90
22838;DHT22;11585;51.450;-0.240;2023-09-30T09:42:59;16.60;99.90
22838;DHT22;11585;51.450;-0.240;2023-09-30T09:45:26;16.70;99.90
22838;DHT22;11585;51.450;-0.240;2023-09-30T09:47:55;16.70;99.90
22838;DHT22;11585;51.450;-0.240;2023-09-30T11:32:05;17.70;99.90
22838;DHT22;11585;51.450;-0.240;2023-09-30T11:34:35;17.70;99.90
22838;DHT22;11585;51.450;-0.240;2023-09-30T11:37:01;17.70;99.90
22838;DHT22;11585;51.450;-0.240;2023-09-30T11:39:29;17.80;99.90
22838;DHT22;11585;51.450;-0.240;2023-09-30T11:41:55;17.80;99.90
22838;DHT22;11585;51.450;-0.240;2023-09-30T11:44:23;17.80;99.90
22838;DHT22;11585;51.450;-0.240;2023-09-30T11:51:49;17.90;99.90
22838;DHT22;11585;51.450;-0.240;2023-09-30T11:54:16;17.90;99.90
22838;DHT22;11585;51.450;-0.240;2023-09-30T11:56:42;17.90;99.90
22838;DHT22;11585;51.450;-0.240;2023-09-30T11:59:09;17.90;99.90
22838;DHT22;11585;51.450;-0.240;2023-09-30T12:01:37;18.00;99.90
22838;DHT22;11585;51.450;-0.240;2023-09-30T12:04:03;18.00;99.90
22838;DHT22;11585;51.450;-0.240;2023-09-30T12:06:29;18.00;99.90
22838;DHT22;11585;51.450;-0.240;2023-09-30T12:08:55;18.10;99.90
22838;DHT22;11585;51.450;-0.240;2023-09-30T12:11:21;18.00;99.90
22838;DHT22;11585;51.450;-0.240;2023-09-30T12:13:49;18.10;99.90
22838;DHT22;11585;51.450;-0.240;2023-09-30T12:16:18;18.10;99.90
22838;DHT22;11585;51.450;-0.240;2023-09-30T12:18:45;18.10;99.90
22838;DHT22;11585;51.450;-0.240;2023-09-30T12:21:11;18.20;99.90
22838;DHT22;11585;51.450;-0.240;2023-09-30T12:23:39;18.20;99.90
22838;DHT22;11585;51.450;-0.240;2023-09-30T12:26:05;18.20;99.90
22838;DHT22;11585;51.450;-0.240;2023-09-30T12:28:34;18.20;99.90
22838;DHT22;11585;51.450;-0.240;2023-09-30T12:31:01;18.20;99.90
22838;DHT22;11585;51.450;-0.240;2023-09-30T12:33:33;18.30;99.90
22838;DHT22;11585;51.450;-0.240;2023-09-30T12:35:59;18.30;99.90
22838;DHT22;11585;51.450;-0.240;2023-09-30T12:38:25;18.30;99.90
22838;DHT22;11585;51.450;-0.240;2023-09-30T12:40:52;18.30;99.90
22838;DHT22;11585;51.450;-0.240;2023-09-30T12:43:19;18.30;99.90
22838;DHT22;11585;51.450;-0.240;2023-09-30T12:45:45;18.40;99.90
22838;DHT22;11585;51.450;-0.240;2023-09-30T12:48:11;18.40;99.90
22838;DHT22;11585;51.450;-0.240;2023-09-30T12:50:37;18.40;99.90
22838;DHT22;11585;51.450;-0.240;2023-09-30T18:43:49;18.50;99.90
22838;DHT22;11585;51.450;-0.240;2023-09-30T18:46:15;18.60;99.90
22838;DHT22;11585;51.450;-0.240;2023-09-30T18:48:42;18.60;99.90
22838;DHT22;11585;51.450;-0.240;2023-09-30T18:51:07;18.60;99.90
22838;DHT22;11585;51.450;-0.240;2023-09-30T18:53:37;18.60;99.90
22838;DHT22;11585;51.450;-0.240;2023-09-30T18:56:04;18.60;99.90
22838;DHT22;11585;51.450;-0.240;2023-09-30T18:58:32;18.60;99.90
22838;DHT22;11585;51.450;-0.240;2023-09-30T19:00:58;18.60;99.90
22838;DHT22;11585;51.450;-0.240;2023-09-30T19:03:24;18.60;99.90
22838;DHT22;11585;51.450;-0.240;2023-09-30T19:05:51;18.60;99.90
22838;DHT22;11585;51.450;-0.240;2023-09-30T19:08:20;18.60;99.90
22838;DHT22;11585;51.450;-0.240;2023-09-30T19:10:46;18.60;99.90
22838;DHT22;11585;51.450;-0.240;2023-09-30T19:13:13;18.60;99.90
22838;DHT22;11585;51.450;-0.240;2023-09-30T19:15:38;18.60;99.90
22838;DHT22;11585;51.450;-0.240;2023-09-30T19:18:05;18.50;99.90
22838;DHT22;11585;51.450;-0.240;2023-09-30T19:20:31;18.60;99.90
22838;DHT22;11585;51.450;-0.240;2023-09-30T19:22:57;18.60;99.90
22838;DHT22;11585;51.450;-0.240;2023-09-30T19:25:23;18.60;99.90
22838;DHT22;11585;51.450;-0.240;2023-09-30T19:27:51;18.50;99.90
22838;DHT22;11585;51.450;-0.240;2023-09-30T19:30:17;18.50;99.90
22838;DHT22;11585;51.450;-0.240;2023-09-30T19:32:43;18.50;99.90
22838;DHT22;11585;51.450;-0.240;2023-09-30T19:35:09;18.50;99.90
22838;DHT22;11585;51.450;-0.240;2023-09-30T19:37:35;18.50;99.90
22838;DHT22;11585;51.450;-0.240;2023-09-30T19:40:01;18.50;99.90
22838;DHT22;11585;51.450;-0.240;2023-09-30T19:42:28;18.50;99.90
22838;DHT22;11585;51.450;-0.240;2023-09-30T19:44:54;18.50;99.90
22838;DHT22;11585;51.450;-0.240;2023-09-30T19:47:20;18.50;99.90
22838;DHT22;11585;51.450;-0.240;2023-09-30T19:49:46;18.50;99.90
22838;DHT22;11585;51.450;-0.240;2023-09-30T19:52:13;18.50;99.90
22838;DHT22;11585;51.450;-0.240;2023-09-30T19:54:39;18.50;99.90
22838;DHT22;11585;51.450;-0.240;2023-09-30T19:57:08;18.50;99.90
22838;DHT22;11585;51.450;-0.240;2023-09-30T19:59:37;18.50;99.90
22838;DHT22;11585;51.450;-0.240;2023-09-30T20:02:05;18.40;99.90
22838;DHT22;11585;51.450;-0.240;2023-09-30T20:04:31;18.40;99.90
22838;DHT22;11585;51.450;-0.240;2023-09-30T20:06:57;18.40;99.90
22838;DHT22;11585;51.450;-0.240;2023-09-30T20:11:58;18.40;99.90
22838;DHT22;11585;51.450;-0.240;2023-09-30T20:14:28;18.40;99.90
22838;DHT22;11585;51.450;-0.240;2023-09-30T20:16:55;18.40;99.90
22838;DHT22;11585;51.450;-0.240;2023-09-30T20:19:20;18.40;99.90
22838;DHT22;11585;51.450;-0.240;2023-09-30T20:21:46;18.40;99.90
22838;DHT22;11585;51.450;-0.240;2023-09-30T20:24:12;18.30;99.90
22838;DHT22;11585;51.450;-0.240;2023-09-30T20:26:37;18.30;99.90
22838;DHT22;11585;51.450;-0.240;2023-09-30T20:29:03;18.30;99.90
22838;DHT22;11585;51.450;-0.240;2023-09-30T20:31:34;18.30;99.90
22838;DHT22;11585;51.450;-0.240;2023-09-30T20:34:03;18.30;99.90
22838;DHT22;11585;51.450;-0.240;2023-09-30T20:36:30;18.30;99.90
22838;DHT22;11585;51.450;-0.240;2023-09-30T20:38:56;18.30;99.90
22838;DHT22;11585;51.450;-0.240;2023-09-30T20:41:22;18.30;99.90
22838;DHT22;11585;51.450;-0.240;2023-09-30T20:43:49;18.30;99.90
22838;DHT22;11585;51.450;-0.240;2023-09-30T20:46:16;18.30;99.90
22838;DHT22;11585;51.450;-0.240;2023-09-30T20:48:42;18.30;99.90
22838;DHT22;11585;51.450;-0.240;2023-09-30T20:51:08;18.30;99.90
22838;DHT22;11585;51.450;-0.240;2023-09-30T20:53:34;18.30;99.90
22838;DHT22;11585;51.450;-0.240;2023-09-30T20:56:01;18.20;99.90
22838;DHT22;11585;51.450;-0.240;2023-09-30T20:58:27;18.20;99.90
22838;DHT22;11585;51.450;-0.240;2023-09-30T21:00:54;18.20;99.90
22838;DHT22;11585;51.450;-0.240;2023-09-30T21:03:22;18.20;99.90
22838;DHT22;11585;51.450;-0.240;2023-09-30T21:05:48;18.20;99.90
22838;DHT22;11585;51.450;-0.240;2023-09-30T21:08:14;18.20;99.90
22838;DHT22;11585;51.450;-0.240;2023-09-30T21:10:45;18.20;99.90
22838;DHT22;11585;51.450;-0.240;2023-09-30T21:13:10;18.20;99.90
22838;DHT22;11585;51.450;-0.240;2023-09-30T21:15:36;18.20;99.90
22838;DHT22;11585;51.450;-0.240;2023-09-30T21:18:01;18.20;99.90
22838;DHT22;11585;51.450;-0.240;2023-09-30T21:20:28;18.20;99.90
22838;DHT22;11585;51.450;-0.240;2023-09-30T21:22:53;18.10;99.90
22838;DHT22;11585;51.450;-0.240;2023-09-30T21:25:19;18.10;99.90
22838;DHT22;11585;51.450;-0.240;2023-09-30T21:27:45;18.10;99.90
22838;DHT22;11585;51.450;-0.240;2023-09-30T21:30:13;18.10;99.90
22838;DHT22;11585;51.450;-0.240;2023-09-30T21:32:41;18.10;99.90
22838;DHT22;11585;51.450;-0.240;2023-09-30T21:35:06;18.10;99.90
22838;DHT22;11585;51.450;-0.240;2023-09-30T21:37:35;18.10;99.90
22838;DHT22;11585;51.450;-0.240;2023-09-30T21:40:01;18.10;99.90
